Ana Sayfa
METAR-TAF:

METAR-TAF

Havaalanları :

Quakertown Airport

Quakertown, Pensilvanya, Amerika Birleşik Devletleri

Enlem: 40-26-06N, Boylam: 075-22-54W, yükseklik: 160 m

Güncel hava durumu gözlemi

Rapor saat 13:55 UTC de 14 dakika önce yapıldı.
Rüzgar değişken yönden 4 kt
Sıcaklık 17°C
Nem 63%
Basınç 1019 hPa
Görüş mesafesi: 16.1 km
Açık gökyüzü

METAR: KUKT 241355Z AUTO VRB04KT 10SM CLR 17/10 A3009 RMK A01

Saat: 10:09 (14:09 UTC)


TAF: eksik

4.000'den fazla havaalanı için hava durumu gözlemleri ve tahminleri (METAR ve TAF raporları).

Kullanılabilir istasyonlar harita üzerinde sarı ve kırmızı noktalarla gösterilir.

İstasyonun adını görmek için fareyi noktanın üzerinde gezdirin.

Sonrasında hava gözlem ve tahminlerini görmek için tıklayın.

Haritayı değiştirmek için: yaklaştırmak için siyah artı işaretli yeşil düğmeye ve uzaklaştırmak için de eksi işaretli düğmeye hızla tıklayın; bitişik haritalar için yeşil okları kullanın.


METAR-TAF: